createdAt,value
2022-08-28T08:33:06.668Z,19.67
2022-08-28T08:34:08.882Z,19.69
2022-08-28T08:35:12.799Z,19.46
2022-08-28T08:36:18.863Z,19.61
2022-08-28T08:55:25.450Z,20.19
2022-08-28T08:56:34.787Z,20.41
2022-08-28T08:57:38.388Z,20.61
2022-08-28T08:58:43.079Z,20.76
2022-08-28T08:59:44.465Z,21.05
2022-08-28T09:01:01.959Z,20.87
2022-08-28T09:08:39.932Z,21.71
2022-08-28T09:09:44.859Z,22.00
2022-08-28T09:10:55.162Z,22.45
2022-08-28T09:12:04.725Z,22.53
2022-08-28T09:13:27.592Z,22.59
2022-08-28T09:14:47.382Z,22.42
2022-08-28T09:15:50.968Z,21.95
2022-08-28T09:16:53.150Z,21.93
2022-08-28T09:18:12.587Z,22.20
2022-08-28T09:19:18.533Z,22.23
2022-08-28T09:20:32.512Z,21.13
2022-08-28T09:21:38.890Z,20.52
2022-08-28T09:22:45.671Z,20.29
2022-08-28T09:23:47.102Z,20.73
2022-08-28T09:24:48.790Z,21.00
2022-08-28T09:25:59.703Z,20.99
2022-08-28T09:27:27.053Z,21.87
2022-08-28T09:28:41.804Z,22.52
2022-08-28T09:29:54.434Z,22.79
2022-08-28T09:31:01.262Z,22.70
2022-08-28T09:44:05.970Z,22.67
2022-08-28T09:45:22.234Z,22.29
2022-08-28T09:46:29.552Z,22.86
2022-08-28T09:47:40.566Z,22.91
2022-08-28T09:48:52.373Z,22.74
2022-08-28T09:49:54.001Z,22.45
2022-08-28T09:51:21.609Z,21.96
2022-08-28T09:52:25.356Z,22.41
2022-08-28T09:53:28.397Z,22.57
2022-08-28T09:54:39.529Z,22.53
2022-08-28T09:56:12.000Z,22.14
2022-08-28T10:06:18.734Z,23.55
2022-08-28T10:07:36.095Z,24.03
2022-08-28T10:08:40.462Z,24.04
2022-08-28T10:10:07.617Z,24.15
2022-08-28T10:11:44.282Z,23.66
2022-08-28T10:13:20.402Z,24.13
2022-08-28T10:14:51.130Z,23.90
2022-08-28T10:16:09.854Z,24.16
2022-08-28T10:17:38.001Z,23.79
2022-08-28T10:18:53.450Z,23.74
2022-08-28T10:20:24.405Z,23.68
2022-08-28T10:21:28.820Z,24.06
2022-08-28T10:22:50.981Z,24.70
2022-08-28T10:24:02.514Z,24.88
2022-08-28T10:25:21.825Z,24.93
2022-08-28T10:26:41.324Z,25.36
2022-08-28T10:28:10.300Z,25.71
2022-08-28T10:29:38.056Z,25.90
2022-08-28T10:30:53.012Z,24.54
2022-08-28T10:38:53.030Z,26.69
2022-08-28T10:40:01.484Z,27.12
2022-08-28T10:41:12.013Z,26.54
2022-08-28T10:42:19.019Z,26.58
2022-08-28T10:43:29.681Z,25.95
2022-08-28T10:44:36.799Z,25.77
2022-08-28T10:45:42.177Z,25.77
2022-08-28T10:46:52.037Z,25.51
2022-08-28T10:48:10.094Z,25.49
2022-08-28T10:49:41.424Z,25.23
2022-08-28T10:50:45.648Z,26.12
2022-08-28T10:51:50.314Z,26.23
2022-08-28T10:53:00.181Z,26.97
2022-08-28T10:54:12.560Z,26.34
2022-08-28T10:55:21.537Z,26.29
2022-08-28T10:56:30.443Z,26.33
2022-08-28T10:57:49.076Z,26.48
2022-08-28T10:58:57.515Z,26.53
2022-08-28T11:00:02.880Z,26.68
2022-08-28T11:01:16.684Z,26.44
2022-08-28T11:02:21.265Z,26.59
2022-08-28T11:03:35.130Z,26.58
2022-08-28T11:04:37.053Z,26.16
2022-08-28T11:05:53.646Z,25.86
2022-08-28T11:07:06.466Z,25.54
2022-08-28T11:08:23.165Z,25.29
2022-08-28T11:09:38.361Z,25.76
2022-08-28T11:10:50.387Z,26.54
2022-08-28T11:12:01.056Z,27.24
2022-08-28T11:13:06.246Z,27.49
2022-08-28T11:21:08.834Z,29.06
2022-08-28T11:22:19.157Z,29.35
2022-08-28T11:23:24.395Z,29.43
2022-08-28T11:24:51.194Z,29.72
2022-08-28T11:26:01.964Z,29.56
2022-08-28T11:27:31.003Z,30.29
2022-08-28T11:28:35.059Z,29.63
2022-08-28T11:30:21.902Z,30.13
2022-08-28T11:31:30.747Z,29.15
2022-08-28T11:32:32.358Z,28.79
2022-08-28T11:33:47.748Z,29.84
2022-08-28T11:34:59.963Z,30.66
2022-08-28T11:36:01.929Z,30.60
2022-08-28T11:37:03.510Z,30.78
2022-08-28T11:38:05.871Z,30.40
2022-08-28T11:39:13.314Z,30.53
2022-08-28T11:40:28.642Z,28.64
2022-08-28T11:41:34.197Z,29.77
2022-08-28T11:42:37.154Z,29.59
2022-08-28T11:43:40.998Z,29.79
2022-08-28T11:44:45.975Z,30.49
2022-08-28T11:45:47.896Z,31.01
2022-08-28T11:46:52.445Z,31.01
2022-08-28T11:47:56.454Z,30.52
2022-08-28T11:49:03.741Z,31.15
2022-08-28T11:50:16.389Z,31.32
2022-08-28T11:51:17.716Z,31.25
2022-08-28T11:52:47.181Z,30.87
2022-08-28T11:54:26.932Z,30.07
2022-08-28T11:55:50.195Z,31.08
2022-08-28T11:57:01.931Z,31.75
2022-08-28T11:59:35.995Z,31.65
2022-08-28T12:00:57.858Z,31.60
2022-08-28T12:02:37.143Z,30.62
2022-08-28T12:03:58.416Z,30.49
2022-08-28T12:05:00.077Z,30.67
2022-08-28T12:06:02.380Z,31.20
2022-08-28T12:07:09.780Z,30.85
2022-08-28T12:08:12.592Z,31.24
2022-08-28T12:09:26.119Z,30.95
2022-08-28T12:10:27.673Z,31.32
2022-08-28T12:11:44.859Z,30.51
2022-08-28T12:12:59.816Z,29.72
2022-08-28T12:14:01.405Z,29.63
2022-08-28T12:15:07.685Z,28.83
2022-08-28T12:16:09.396Z,28.89
2022-08-28T12:17:49.017Z,28.91
2022-08-28T12:19:00.056Z,28.56
2022-08-28T12:20:10.362Z,28.57
2022-08-28T12:21:24.773Z,28.37
2022-08-28T12:22:53.192Z,28.28
2022-08-28T12:23:59.021Z,29.15
2022-08-28T12:31:59.158Z,31.37
2022-08-28T12:33:10.532Z,30.90
2022-08-28T12:34:28.961Z,30.05
2022-08-28T12:35:30.674Z,30.53
2022-08-28T12:36:32.176Z,29.90
2022-08-28T12:37:51.066Z,29.98
2022-08-28T12:38:55.053Z,29.39
2022-08-28T12:40:09.451Z,29.44
2022-08-28T12:41:22.606Z,29.58
2022-08-28T12:42:29.596Z,30.42
2022-08-28T12:43:46.665Z,30.09
2022-08-28T12:44:48.933Z,28.38
2022-08-28T12:45:56.276Z,26.19
2022-08-28T12:46:58.469Z,27.81
2022-08-28T12:48:04.298Z,28.91
2022-08-28T12:49:27.433Z,28.63
2022-08-28T12:50:38.166Z,28.74
2022-08-28T12:51:42.887Z,28.81
2022-08-28T12:52:53.140Z,29.23
2022-08-28T12:54:01.441Z,29.88
2022-08-28T12:55:02.981Z,30.48
2022-08-28T12:56:04.568Z,30.71
2022-08-28T12:57:09.497Z,30.32
2022-08-28T12:58:27.919Z,28.63
2022-08-28T12:59:37.121Z,29.74
2022-08-28T13:00:54.321Z,30.79
2022-08-28T13:02:06.367Z,30.69
2022-08-28T13:03:07.901Z,30.67
2022-08-28T13:04:27.245Z,31.32
2022-08-28T13:05:39.704Z,32.02
2022-08-28T13:06:41.179Z,32.45
2022-08-28T13:07:49.302Z,32.23
2022-08-28T13:09:15.979Z,31.74
2022-08-28T13:10:22.083Z,32.00
2022-08-28T13:11:23.512Z,32.01
2022-08-28T13:12:37.759Z,32.01
2022-08-28T13:13:50.113Z,32.27
2022-08-28T13:14:52.336Z,31.61
2022-08-28T13:15:57.868Z,31.77
2022-08-28T13:17:02.727Z,31.08
2022-08-28T13:18:04.482Z,31.64
2022-08-28T13:19:06.377Z,31.80
2022-08-28T13:20:08.689Z,31.88
2022-08-28T13:21:13.207Z,31.74
2022-08-28T13:22:41.733Z,31.55
2022-08-28T13:23:55.648Z,31.22
2022-08-28T13:25:02.062Z,31.78
2022-08-28T13:26:06.641Z,31.86
2022-08-28T13:27:08.006Z,31.77
2022-08-28T13:28:17.706Z,32.08
2022-08-28T13:29:24.309Z,30.66
2022-08-28T13:30:38.517Z,30.35
2022-08-28T13:31:40.473Z,30.84
2022-08-28T13:32:55.775Z,31.26
2022-08-28T13:34:16.430Z,31.27
2022-08-28T13:35:17.777Z,32.02
2022-08-28T13:36:26.470Z,31.46
2022-08-28T13:37:53.062Z,32.26
2022-08-28T13:38:54.590Z,32.13
2022-08-28T13:39:57.035Z,31.20
2022-08-28T13:41:03.255Z,31.96
2022-08-28T13:42:08.462Z,31.78
2022-08-28T13:43:11.709Z,31.68
2022-08-28T13:44:34.758Z,31.89
2022-08-28T13:45:42.984Z,31.85
2022-08-28T13:46:45.137Z,31.51
2022-08-28T13:47:46.578Z,31.44
2022-08-28T13:48:47.959Z,31.13
2022-08-28T13:49:49.495Z,30.60
2022-08-28T13:50:56.665Z,30.62
2022-08-28T13:52:00.237Z,31.18
2022-08-28T13:53:02.899Z,31.22
2022-08-28T13:54:04.485Z,31.88
2022-08-28T13:55:08.016Z,32.41
2022-08-28T13:56:12.053Z,32.33
2022-08-28T13:57:13.899Z,32.01
2022-08-28T13:58:15.994Z,32.29
2022-08-28T13:59:18.265Z,32.52
2022-08-28T14:00:19.945Z,32.06
2022-08-28T14:01:44.055Z,32.39
2022-08-28T14:03:04.316Z,31.32
2022-08-28T14:04:05.911Z,31.85
2022-08-28T14:05:07.837Z,32.02
2022-08-28T14:06:14.135Z,32.38
2022-08-28T14:07:15.950Z,31.32
2022-08-28T14:08:17.382Z,30.27
2022-08-28T14:09:19.590Z,28.07
2022-08-28T14:10:22.792Z,28.42
2022-08-28T14:17:04.651Z,29.11
2022-08-28T14:18:06.408Z,29.40
2022-08-28T14:19:08.178Z,29.06
2022-08-28T14:20:14.852Z,28.82
2022-08-28T14:21:16.845Z,29.03
2022-08-28T14:22:18.339Z,29.41
2022-08-28T14:23:19.790Z,30.01
2022-08-28T14:24:22.377Z,30.45
2022-08-28T14:25:26.551Z,30.73
2022-08-28T14:26:28.629Z,30.90
2022-08-28T14:27:30.332Z,30.93
2022-08-28T14:28:31.727Z,30.69
2022-08-28T14:29:33.242Z,31.31
2022-08-28T14:30:34.644Z,31.40
2022-08-28T14:31:37.002Z,31.20
2022-08-28T14:32:38.477Z,31.28
2022-08-28T14:33:39.994Z,31.27
2022-08-28T14:34:43.769Z,30.80
2022-08-28T14:35:46.182Z,31.06
2022-08-28T14:36:54.925Z,31.25
2022-08-28T14:37:56.330Z,31.33
2022-08-28T14:39:05.408Z,29.33
2022-08-28T14:40:08.896Z,30.07
2022-08-28T14:41:10.447Z,30.67
2022-08-28T14:42:13.153Z,30.26
2022-08-28T14:43:15.167Z,29.80
2022-08-28T14:44:17.152Z,29.78
2022-08-28T14:45:19.351Z,29.99
2022-08-28T14:46:28.463Z,30.07
2022-08-28T14:53:03.992Z,31.07
2022-08-28T14:54:07.511Z,30.63
2022-08-28T14:55:11.043Z,30.48
2022-08-28T14:56:16.470Z,30.95
2022-08-28T14:57:17.892Z,30.81
2022-08-28T14:58:20.149Z,30.31
2022-08-28T15:05:04.377Z,30.42
2022-08-28T15:06:08.895Z,30.77
2022-08-28T15:07:11.081Z,30.51
2022-08-28T15:08:16.205Z,30.51
2022-08-28T15:09:19.363Z,30.59
2022-08-28T15:10:20.834Z,30.31
2022-08-28T15:11:27.358Z,30.66
2022-08-28T15:12:28.811Z,30.54
2022-08-28T15:13:31.613Z,30.73
2022-08-28T15:14:33.446Z,30.40
2022-08-28T15:15:35.008Z,30.42
2022-08-28T15:16:41.580Z,30.39
2022-08-28T15:17:44.023Z,30.41
2022-08-28T15:18:46.449Z,30.60
2022-08-28T15:19:47.925Z,30.52
2022-08-28T15:20:49.302Z,30.07
2022-08-28T15:21:54.281Z,30.14
2022-08-28T15:22:55.717Z,30.23
2022-08-28T15:23:57.767Z,30.13
2022-08-28T15:24:59.185Z,29.97
2022-08-28T15:26:00.856Z,30.02
2022-08-28T15:27:02.975Z,30.16
2022-08-28T15:28:04.865Z,29.93
2022-08-28T15:29:07.355Z,29.92
2022-08-28T15:30:09.651Z,29.87
2022-08-28T15:31:11.404Z,30.08
2022-08-28T15:32:12.793Z,30.18
2022-08-28T15:33:14.777Z,30.32
2022-08-28T15:41:22.067Z,30.93
2022-08-28T15:42:23.598Z,30.20
2022-08-28T15:43:25.064Z,29.77
2022-08-28T15:44:27.216Z,30.28
2022-08-28T15:45:29.016Z,30.83
2022-08-28T15:46:33.781Z,30.77
2022-08-28T15:47:36.250Z,30.76
2022-08-28T15:48:37.738Z,30.46
2022-08-28T15:49:48.666Z,30.26
2022-08-28T15:50:51.713Z,30.36
2022-08-28T15:51:54.049Z,29.60
2022-08-28T15:52:58.976Z,29.85
2022-08-28T15:54:01.416Z,29.91
2022-08-28T15:55:03.109Z,29.67
2022-08-28T15:56:04.668Z,29.45
2022-08-28T15:57:06.203Z,29.23
2022-08-28T15:58:08.823Z,29.14
2022-08-28T15:59:17.557Z,28.89
2022-08-28T16:00:19.090Z,29.07
2022-08-28T16:01:22.347Z,28.92
2022-08-28T16:02:24.919Z,28.58
2022-08-28T16:03:26.573Z,28.69
2022-08-28T16:04:27.972Z,28.10
2022-08-28T16:05:35.019Z,27.92
2022-08-28T16:06:41.885Z,28.41
2022-08-28T16:07:43.568Z,28.34
2022-08-28T16:08:46.447Z,28.59
2022-08-28T16:09:48.610Z,28.59
2022-08-28T16:22:15.691Z,28.10
2022-08-28T16:23:17.201Z,28.37
2022-08-28T16:24:18.593Z,28.54
2022-08-28T16:25:20.257Z,28.56
2022-08-28T16:26:22.398Z,28.72
2022-08-28T16:27:24.030Z,28.78
2022-08-28T16:28:26.033Z,28.89
2022-08-28T16:29:28.635Z,28.62
2022-08-28T16:30:31.034Z,28.61
2022-08-28T16:31:34.201Z,27.67
2022-08-28T16:32:35.813Z,27.32
2022-08-28T16:33:38.012Z,27.51
2022-08-28T16:40:10.283Z,26.82
2022-08-28T16:41:14.421Z,26.72
2022-08-28T16:42:17.229Z,26.40
2022-08-28T16:43:20.163Z,26.68
2022-08-28T16:44:24.265Z,26.84
2022-08-28T16:45:26.499Z,26.99
2022-08-28T16:52:04.799Z,27.18
2022-08-28T16:53:07.824Z,26.77
2022-08-28T16:54:09.354Z,27.00
2022-08-28T16:55:11.830Z,26.89
2022-08-28T16:56:15.540Z,26.83
2022-08-28T16:57:18.701Z,26.73
2022-08-28T16:58:20.306Z,26.63
2022-08-28T16:59:24.953Z,26.61
2022-08-28T17:00:27.120Z,26.51
2022-08-28T17:01:28.870Z,26.30
2022-08-28T17:02:30.465Z,26.38
2022-08-28T17:03:32.089Z,26.45
2022-08-28T17:04:33.695Z,26.36
2022-08-28T17:05:35.270Z,25.98
2022-08-28T17:06:42.670Z,26.02
2022-08-28T17:07:44.316Z,26.03
2022-08-28T17:08:46.229Z,25.85
2022-08-28T17:09:47.932Z,25.76
2022-08-28T17:10:50.112Z,25.62
2022-08-28T17:11:52.277Z,25.62
2022-08-28T17:12:54.068Z,25.67
2022-08-28T17:13:55.775Z,25.40
2022-08-28T17:14:57.275Z,25.40
2022-08-28T17:16:01.922Z,25.25
2022-08-28T17:17:04.017Z,25.27
2022-08-28T17:18:05.630Z,25.29
2022-08-28T17:19:07.054Z,25.12
2022-08-28T17:20:30.481Z,25.05
2022-08-28T17:21:50.469Z,24.98
2022-08-28T17:22:51.852Z,24.90
2022-08-28T17:23:54.171Z,24.77
2022-08-28T17:24:59.406Z,24.69
2022-08-28T17:26:00.793Z,24.67
2022-08-28T17:27:05.680Z,24.57
2022-08-28T17:28:07.652Z,24.61
2022-08-28T17:29:09.354Z,24.54
2022-08-28T17:30:15.670Z,24.52
2022-08-28T17:31:18.791Z,24.48
2022-08-28T17:32:20.718Z,24.36
2022-08-28T17:33:22.148Z,24.35
2022-08-28T17:40:02.029Z,23.95
2022-08-28T17:41:06.461Z,23.91
2022-08-28T17:42:07.909Z,23.75
2022-08-28T17:43:09.563Z,23.82
2022-08-28T17:44:11.792Z,23.80
2022-08-28T17:45:14.061Z,23.79
2022-08-28T17:53:02.293Z,23.48
2022-08-28T17:54:04.074Z,23.44
2022-08-28T17:55:06.569Z,23.45
2022-08-28T17:56:08.713Z,23.41
2022-08-28T17:57:10.182Z,23.41
2022-08-28T17:58:12.065Z,23.29
2022-08-28T17:59:14.471Z,23.35
2022-08-28T18:00:19.339Z,23.30
2022-08-28T18:01:25.269Z,23.21
2022-08-28T18:02:27.859Z,23.20
2022-08-28T18:03:30.765Z,23.12
2022-08-28T18:04:45.406Z,23.18
